sensor_id;sensor_type;location;lat;lon;timestamp;P1;durP1;ratioP1;P2;durP2;ratioP2
28762;SDS011;15918;51.270;6.522;2023-02-15T00:01:45;36.30;;;25.60;;
28762;SDS011;15918;51.270;6.522;2023-02-15T00:04:15;37.65;;;26.83;;
28762;SDS011;15918;51.270;6.522;2023-02-15T00:06:42;38.03;;;26.83;;
28762;SDS011;15918;51.270;6.522;2023-02-15T00:09:09;39.05;;;26.02;;
28762;SDS011;15918;51.270;6.522;2023-02-15T00:11:35;36.65;;;25.45;;
28762;SDS011;15918;51.270;6.522;2023-02-15T00:14:08;36.83;;;26.50;;
28762;SDS011;15918;51.270;6.522;2023-02-15T00:16:39;41.45;;;27.65;;
28762;SDS011;15918;51.270;6.522;2023-02-15T00:19:06;38.97;;;26.95;;
28762;SDS011;15918;51.270;6.522;2023-02-15T00:21:33;40.70;;;27.58;;
28762;SDS011;15918;51.270;6.522;2023-02-15T00:24:00;40.95;;;28.42;;
28762;SDS011;15918;51.270;6.522;2023-02-15T00:26:27;40.30;;;27.58;;
28762;SDS011;15918;51.270;6.522;2023-02-15T00:28:53;35.75;;;26.20;;
28762;SDS011;15918;51.270;6.522;2023-02-15T00:31:19;39.22;;;26.98;;
28762;SDS011;15918;51.270;6.522;2023-02-15T00:33:45;40.47;;;27.90;;
28762;SDS011;15918;51.270;6.522;2023-02-15T00:36:11;38.72;;;27.63;;
28762;SDS011;15918;51.270;6.522;2023-02-15T00:38:37;38.28;;;26.67;;
28762;SDS011;15918;51.270;6.522;2023-02-15T00:41:04;39.20;;;28.15;;
28762;SDS011;15918;51.270;6.522;2023-02-15T00:43:30;38.83;;;27.88;;
28762;SDS011;15918;51.270;6.522;2023-02-15T00:45:57;40.20;;;27.75;;
28762;SDS011;15918;51.270;6.522;2023-02-15T00:48:24;40.42;;;27.88;;
28762;SDS011;15918;51.270;6.522;2023-02-15T00:50:54;39.72;;;27.33;;
28762;SDS011;15918;51.270;6.522;2023-02-15T00:53:22;39.90;;;27.85;;
28762;SDS011;15918;51.270;6.522;2023-02-15T00:55:48;41.97;;;28.45;;
28762;SDS011;15918;51.270;6.522;2023-02-15T00:58:14;41.97;;;28.70;;
28762;SDS011;15918;51.270;6.522;2023-02-15T01:00:41;37.45;;;28.33;;
28762;SDS011;15918;51.270;6.522;2023-02-15T01:03:08;38.20;;;26.80;;
28762;SDS011;15918;51.270;6.522;2023-02-15T01:05:34;39.15;;;27.88;;
28762;SDS011;15918;51.270;6.522;2023-02-15T01:08:00;42.30;;;29.27;;
28762;SDS011;15918;51.270;6.522;2023-02-15T01:10:26;40.22;;;27.48;;
28762;SDS011;15918;51.270;6.522;2023-02-15T01:12:53;40.22;;;28.13;;
28762;SDS011;15918;51.270;6.522;2023-02-15T01:15:19;41.90;;;29.25;;
28762;SDS011;15918;51.270;6.522;2023-02-15T01:17:45;39.30;;;28.80;;
28762;SDS011;15918;51.270;6.522;2023-02-15T01:20:16;45.97;;;29.23;;
28762;SDS011;15918;51.270;6.522;2023-02-15T01:22:43;38.75;;;27.65;;
28762;SDS011;15918;51.270;6.522;2023-02-15T01:25:08;43.15;;;29.60;;
28762;SDS011;15918;51.270;6.522;2023-02-15T01:27:34;45.20;;;29.05;;
28762;SDS011;15918;51.270;6.522;2023-02-15T01:30:00;40.35;;;29.02;;
28762;SDS011;15918;51.270;6.522;2023-02-15T01:32:25;43.92;;;30.23;;
28762;SDS011;15918;51.270;6.522;2023-02-15T01:34:51;44.00;;;30.60;;
28762;SDS011;15918;51.270;6.522;2023-02-15T01:37:17;44.72;;;29.58;;
28762;SDS011;15918;51.270;6.522;2023-02-15T01:39:43;44.35;;;29.95;;
28762;SDS011;15918;51.270;6.522;2023-02-15T01:42:11;43.70;;;30.42;;
28762;SDS011;15918;51.270;6.522;2023-02-15T01:44:57;42.38;;;29.55;;
28762;SDS011;15918;51.270;6.522;2023-02-15T01:47:35;44.80;;;28.17;;
28762;SDS011;15918;51.270;6.522;2023-02-15T01:50:05;42.17;;;30.33;;
28762;SDS011;15918;51.270;6.522;2023-02-15T01:52:40;40.28;;;28.73;;
28762;SDS011;15918;51.270;6.522;2023-02-15T01:55:20;42.88;;;30.55;;
28762;SDS011;15918;51.270;6.522;2023-02-15T01:57:48;41.10;;;29.02;;
28762;SDS011;15918;51.270;6.522;2023-02-15T02:00:14;39.85;;;29.52;;
28762;SDS011;15918;51.270;6.522;2023-02-15T02:02:42;41.50;;;29.20;;
28762;SDS011;15918;51.270;6.522;2023-02-15T02:05:10;44.53;;;30.35;;
28762;SDS011;15918;51.270;6.522;2023-02-15T02:07:39;42.30;;;29.10;;
28762;SDS011;15918;51.270;6.522;2023-02-15T02:10:07;43.20;;;29.33;;
28762;SDS011;15918;51.270;6.522;2023-02-15T02:12:37;46.08;;;31.40;;
28762;SDS011;15918;51.270;6.522;2023-02-15T02:15:04;39.33;;;27.65;;
28762;SDS011;15918;51.270;6.522;2023-02-15T02:18:07;39.35;;;28.38;;
28762;SDS011;15918;51.270;6.522;2023-02-15T02:44:38;43.17;;;30.20;;
28762;SDS011;15918;51.270;6.522;2023-02-15T02:47:12;45.97;;;30.67;;
28762;SDS011;15918;51.270;6.522;2023-02-15T02:49:51;45.28;;;30.25;;
28762;SDS011;15918;51.270;6.522;2023-02-15T02:52:36;42.25;;;29.50;;
28762;SDS011;15918;51.270;6.522;2023-02-15T02:55:18;40.78;;;29.27;;
28762;SDS011;15918;51.270;6.522;2023-02-15T02:58:09;42.90;;;30.10;;
28762;SDS011;15918;51.270;6.522;2023-02-15T03:00:54;45.75;;;30.92;;
28762;SDS011;15918;51.270;6.522;2023-02-15T03:03:32;42.25;;;29.60;;
28762;SDS011;15918;51.270;6.522;2023-02-15T03:06:04;41.33;;;29.05;;
28762;SDS011;15918;51.270;6.522;2023-02-15T03:08:42;43.55;;;29.25;;
28762;SDS011;15918;51.270;6.522;2023-02-15T03:11:12;46.65;;;30.77;;
28762;SDS011;15918;51.270;6.522;2023-02-15T03:13:37;45.75;;;30.30;;
28762;SDS011;15918;51.270;6.522;2023-02-15T03:16:04;40.90;;;28.73;;
28762;SDS011;15918;51.270;6.522;2023-02-15T03:18:52;43.90;;;30.52;;
28762;SDS011;15918;51.270;6.522;2023-02-15T03:21:45;44.20;;;30.30;;
28762;SDS011;15918;51.270;6.522;2023-02-15T03:24:29;41.30;;;28.48;;
28762;SDS011;15918;51.270;6.522;2023-02-15T03:26:59;45.35;;;29.85;;
28762;SDS011;15918;51.270;6.522;2023-02-15T03:29:30;47.47;;;30.17;;
28762;SDS011;15918;51.270;6.522;2023-02-15T03:31:59;46.08;;;30.20;;
28762;SDS011;15918;51.270;6.522;2023-02-15T03:34:27;45.28;;;30.10;;
28762;SDS011;15918;51.270;6.522;2023-02-15T03:39:31;44.78;;;29.90;;
28762;SDS011;15918;51.270;6.522;2023-02-15T03:42:31;44.95;;;30.83;;
28762;SDS011;15918;51.270;6.522;2023-02-15T03:45:10;42.30;;;28.83;;
28762;SDS011;15918;51.270;6.522;2023-02-15T03:47:44;43.80;;;28.75;;
28762;SDS011;15918;51.270;6.522;2023-02-15T03:50:19;44.53;;;29.98;;
28762;SDS011;15918;51.270;6.522;2023-02-15T03:53:09;41.40;;;29.92;;
28762;SDS011;15918;51.270;6.522;2023-02-15T03:55:38;45.17;;;30.48;;
28762;SDS011;15918;51.270;6.522;2023-02-15T03:58:04;47.10;;;30.98;;
28762;SDS011;15918;51.270;6.522;2023-02-15T04:00:58;45.78;;;30.27;;
28762;SDS011;15918;51.270;6.522;2023-02-15T04:03:57;45.28;;;30.10;;
28762;SDS011;15918;51.270;6.522;2023-02-15T04:06:28;44.17;;;30.17;;
28762;SDS011;15918;51.270;6.522;2023-02-15T04:08:53;43.28;;;28.90;;
28762;SDS011;15918;51.270;6.522;2023-02-15T04:11:37;43.35;;;29.98;;
28762;SDS011;15918;51.270;6.522;2023-02-15T04:14:03;42.33;;;29.35;;
28762;SDS011;15918;51.270;6.522;2023-02-15T04:16:49;42.75;;;29.35;;
28762;SDS011;15918;51.270;6.522;2023-02-15T04:19:14;41.65;;;28.73;;
28762;SDS011;15918;51.270;6.522;2023-02-15T04:21:58;46.92;;;29.98;;
28762;SDS011;15918;51.270;6.522;2023-02-15T04:24:42;45.28;;;30.20;;
28762;SDS011;15918;51.270;6.522;2023-02-15T04:27:26;42.03;;;28.05;;
28762;SDS011;15918;51.270;6.522;2023-02-15T04:29:52;40.15;;;28.65;;
28762;SDS011;15918;51.270;6.522;2023-02-15T04:32:17;43.65;;;29.50;;
28762;SDS011;15918;51.270;6.522;2023-02-15T04:34:43;41.53;;;28.92;;
28762;SDS011;15918;51.270;6.522;2023-02-15T04:37:08;44.15;;;28.20;;
28762;SDS011;15918;51.270;6.522;2023-02-15T04:39:35;44.90;;;29.20;;
28762;SDS011;15918;51.270;6.522;2023-02-15T04:42:01;43.03;;;28.77;;
28762;SDS011;15918;51.270;6.522;2023-02-15T04:44:27;43.75;;;29.30;;
28762;SDS011;15918;51.270;6.522;2023-02-15T04:46:52;38.80;;;27.17;;
28762;SDS011;15918;51.270;6.522;2023-02-15T04:49:18;44.00;;;29.00;;
28762;SDS011;15918;51.270;6.522;2023-02-15T04:51:43;43.67;;;29.73;;
28762;SDS011;15918;51.270;6.522;2023-02-15T04:54:09;39.20;;;28.33;;
28762;SDS011;15918;51.270;6.522;2023-02-15T04:56:34;44.33;;;29.55;;
28762;SDS011;15918;51.270;6.522;2023-02-15T04:59:02;40.63;;;29.17;;
28762;SDS011;15918;51.270;6.522;2023-02-15T05:01:28;42.45;;;28.58;;
28762;SDS011;15918;51.270;6.522;2023-02-15T05:03:54;44.03;;;29.08;;
28762;SDS011;15918;51.270;6.522;2023-02-15T05:06:19;43.08;;;29.00;;
28762;SDS011;15918;51.270;6.522;2023-02-15T05:08:45;42.30;;;28.45;;
28762;SDS011;15918;51.270;6.522;2023-02-15T05:11:11;38.83;;;27.58;;
28762;SDS011;15918;51.270;6.522;2023-02-15T05:13:36;42.92;;;27.60;;
28762;SDS011;15918;51.270;6.522;2023-02-15T05:16:02;44.08;;;28.63;;
28762;SDS011;15918;51.270;6.522;2023-02-15T05:18:28;42.25;;;28.45;;
28762;SDS011;15918;51.270;6.522;2023-02-15T05:20:53;40.40;;;28.48;;
28762;SDS011;15918;51.270;6.522;2023-02-15T05:23:19;39.55;;;27.83;;
28762;SDS011;15918;51.270;6.522;2023-02-15T05:25:48;41.65;;;29.17;;
28762;SDS011;15918;51.270;6.522;2023-02-15T05:28:33;39.90;;;26.95;;
28762;SDS011;15918;51.270;6.522;2023-02-15T05:31:02;42.65;;;28.08;;
28762;SDS011;15918;51.270;6.522;2023-02-15T05:33:37;43.40;;;28.20;;
28762;SDS011;15918;51.270;6.522;2023-02-15T05:36:04;37.97;;;26.58;;
28762;SDS011;15918;51.270;6.522;2023-02-15T05:38:30;39.03;;;26.58;;
28762;SDS011;15918;51.270;6.522;2023-02-15T05:40:56;40.88;;;28.08;;
28762;SDS011;15918;51.270;6.522;2023-02-15T05:43:22;42.17;;;28.02;;
28762;SDS011;15918;51.270;6.522;2023-02-15T05:45:49;41.03;;;26.83;;
28762;SDS011;15918;51.270;6.522;2023-02-15T05:48:16;39.83;;;27.23;;
28762;SDS011;15918;51.270;6.522;2023-02-15T05:50:43;41.97;;;27.83;;
28762;SDS011;15918;51.270;6.522;2023-02-15T05:53:09;41.63;;;28.13;;
28762;SDS011;15918;51.270;6.522;2023-02-15T05:55:39;37.75;;;25.42;;
28762;SDS011;15918;51.270;6.522;2023-02-15T05:58:05;41.50;;;27.25;;
28762;SDS011;15918;51.270;6.522;2023-02-15T06:00:32;38.13;;;26.55;;
28762;SDS011;15918;51.270;6.522;2023-02-15T06:02:58;39.42;;;26.58;;
28762;SDS011;15918;51.270;6.522;2023-02-15T06:05:24;39.38;;;27.27;;
28762;SDS011;15918;51.270;6.522;2023-02-15T06:07:49;40.33;;;26.92;;
28762;SDS011;15918;51.270;6.522;2023-02-15T06:10:15;41.00;;;28.38;;
28762;SDS011;15918;51.270;6.522;2023-02-15T06:12:40;37.67;;;26.38;;
28762;SDS011;15918;51.270;6.522;2023-02-15T06:15:06;43.03;;;27.85;;
28762;SDS011;15918;51.270;6.522;2023-02-15T06:17:32;41.50;;;27.10;;
28762;SDS011;15918;51.270;6.522;2023-02-15T06:19:57;42.03;;;28.45;;
28762;SDS011;15918;51.270;6.522;2023-02-15T06:22:23;38.70;;;26.65;;
28762;SDS011;15918;51.270;6.522;2023-02-15T06:24:48;40.35;;;25.77;;
28762;SDS011;15918;51.270;6.522;2023-02-15T06:27:14;37.83;;;25.90;;
28762;SDS011;15918;51.270;6.522;2023-02-15T06:29:40;38.17;;;26.73;;
28762;SDS011;15918;51.270;6.522;2023-02-15T06:32:05;40.25;;;27.42;;
28762;SDS011;15918;51.270;6.522;2023-02-15T06:34:31;42.03;;;27.77;;
28762;SDS011;15918;51.270;6.522;2023-02-15T06:36:57;37.78;;;25.67;;
28762;SDS011;15918;51.270;6.522;2023-02-15T06:39:23;40.22;;;25.90;;
28762;SDS011;15918;51.270;6.522;2023-02-15T06:41:48;38.42;;;26.20;;
28762;SDS011;15918;51.270;6.522;2023-02-15T06:44:14;42.38;;;27.95;;
28762;SDS011;15918;51.270;6.522;2023-02-15T06:46:39;40.15;;;25.98;;
28762;SDS011;15918;51.270;6.522;2023-02-15T06:49:05;42.78;;;27.05;;
28762;SDS011;15918;51.270;6.522;2023-02-15T06:51:30;40.17;;;26.27;;
28762;SDS011;15918;51.270;6.522;2023-02-15T06:53:56;39.65;;;27.15;;
28762;SDS011;15918;51.270;6.522;2023-02-15T06:56:22;36.90;;;25.83;;
28762;SDS011;15918;51.270;6.522;2023-02-15T06:58:48;40.17;;;27.17;;
28762;SDS011;15918;51.270;6.522;2023-02-15T07:01:17;37.50;;;24.90;;
28762;SDS011;15918;51.270;6.522;2023-02-15T07:03:43;38.95;;;25.63;;
28762;SDS011;15918;51.270;6.522;2023-02-15T07:06:09;37.88;;;25.67;;
28762;SDS011;15918;51.270;6.522;2023-02-15T07:08:36;35.80;;;25.42;;
28762;SDS011;15918;51.270;6.522;2023-02-15T07:11:02;36.25;;;24.73;;
28762;SDS011;15918;51.270;6.522;2023-02-15T07:13:47;39.92;;;26.75;;
28762;SDS011;15918;51.270;6.522;2023-02-15T07:16:13;40.42;;;26.23;;
28762;SDS011;15918;51.270;6.522;2023-02-15T07:18:39;37.00;;;24.85;;
28762;SDS011;15918;51.270;6.522;2023-02-15T07:21:05;38.70;;;25.35;;
28762;SDS011;15918;51.270;6.522;2023-02-15T07:23:33;37.45;;;25.23;;
28762;SDS011;15918;51.270;6.522;2023-02-15T07:26:02;40.70;;;26.38;;
28762;SDS011;15918;51.270;6.522;2023-02-15T07:28:28;35.97;;;24.27;;
28762;SDS011;15918;51.270;6.522;2023-02-15T07:30:54;37.67;;;25.80;;
28762;SDS011;15918;51.270;6.522;2023-02-15T07:33:19;35.28;;;23.75;;
28762;SDS011;15918;51.270;6.522;2023-02-15T07:35:48;41.90;;;25.73;;
28762;SDS011;15918;51.270;6.522;2023-02-15T07:38:15;37.58;;;24.73;;
28762;SDS011;15918;51.270;6.522;2023-02-15T07:40:41;35.67;;;24.13;;
28762;SDS011;15918;51.270;6.522;2023-02-15T07:43:07;37.70;;;25.38;;
28762;SDS011;15918;51.270;6.522;2023-02-15T07:45:33;36.78;;;24.83;;
28762;SDS011;15918;51.270;6.522;2023-02-15T07:48:00;37.08;;;24.63;;
28762;SDS011;15918;51.270;6.522;2023-02-15T07:50:27;37.88;;;24.73;;
28762;SDS011;15918;51.270;6.522;2023-02-15T07:52:52;37.63;;;25.45;;
28762;SDS011;15918;51.270;6.522;2023-02-15T07:55:18;36.20;;;24.63;;
28762;SDS011;15918;51.270;6.522;2023-02-15T07:57:44;39.03;;;23.95;;
28762;SDS011;15918;51.270;6.522;2023-02-15T08:00:14;34.33;;;23.40;;
28762;SDS011;15918;51.270;6.522;2023-02-15T08:02:41;41.25;;;26.15;;
28762;SDS011;15918;51.270;6.522;2023-02-15T08:05:12;33.90;;;24.00;;
28762;SDS011;15918;51.270;6.522;2023-02-15T08:07:37;35.78;;;25.35;;
28762;SDS011;15918;51.270;6.522;2023-02-15T08:10:03;38.55;;;24.60;;
28762;SDS011;15918;51.270;6.522;2023-02-15T08:12:29;35.35;;;24.13;;
28762;SDS011;15918;51.270;6.522;2023-02-15T08:14:54;36.30;;;24.55;;
28762;SDS011;15918;51.270;6.522;2023-02-15T08:17:20;34.58;;;23.65;;
28762;SDS011;15918;51.270;6.522;2023-02-15T08:19:45;37.40;;;24.95;;
28762;SDS011;15918;51.270;6.522;2023-02-15T08:22:12;36.75;;;24.67;;
28762;SDS011;15918;51.270;6.522;2023-02-15T08:24:39;38.60;;;25.30;;
28762;SDS011;15918;51.270;6.522;2023-02-15T08:27:06;37.63;;;24.58;;
28762;SDS011;15918;51.270;6.522;2023-02-15T08:29:34;35.65;;;25.02;;
28762;SDS011;15918;51.270;6.522;2023-02-15T08:32:05;36.63;;;23.98;;
28762;SDS011;15918;51.270;6.522;2023-02-15T08:34:33;36.65;;;24.42;;
28762;SDS011;15918;51.270;6.522;2023-02-15T08:37:00;35.10;;;23.10;;
28762;SDS011;15918;51.270;6.522;2023-02-15T08:39:25;33.60;;;23.40;;
28762;SDS011;15918;51.270;6.522;2023-02-15T08:41:51;35.63;;;23.33;;
28762;SDS011;15918;51.270;6.522;2023-02-15T08:44:18;36.33;;;24.58;;
28762;SDS011;15918;51.270;6.522;2023-02-15T08:46:44;35.03;;;24.63;;
28762;SDS011;15918;51.270;6.522;2023-02-15T08:49:12;35.60;;;23.63;;
28762;SDS011;15918;51.270;6.522;2023-02-15T08:51:42;39.53;;;24.15;;
28762;SDS011;15918;51.270;6.522;2023-02-15T08:54:09;36.17;;;23.45;;
28762;SDS011;15918;51.270;6.522;2023-02-15T08:56:39;35.97;;;24.08;;
28762;SDS011;15918;51.270;6.522;2023-02-15T08:59:06;35.40;;;23.05;;
28762;SDS011;15918;51.270;6.522;2023-02-15T09:01:36;37.65;;;24.90;;
28762;SDS011;15918;51.270;6.522;2023-02-15T09:04:04;37.22;;;23.95;;
28762;SDS011;15918;51.270;6.522;2023-02-15T09:06:33;35.95;;;23.05;;
28762;SDS011;15918;51.270;6.522;2023-02-15T09:08:59;33.97;;;22.10;;
28762;SDS011;15918;51.270;6.522;2023-02-15T09:11:27;36.80;;;24.20;;
28762;SDS011;15918;51.270;6.522;2023-02-15T09:13:55;33.72;;;22.95;;
28762;SDS011;15918;51.270;6.522;2023-02-15T09:16:23;34.63;;;23.05;;
28762;SDS011;15918;51.270;6.522;2023-02-15T09:18:50;35.35;;;23.77;;
28762;SDS011;15918;51.270;6.522;2023-02-15T09:21:17;34.88;;;23.02;;
28762;SDS011;15918;51.270;6.522;2023-02-15T09:23:45;38.92;;;24.13;;
28762;SDS011;15918;51.270;6.522;2023-02-15T09:26:13;33.75;;;22.33;;
28762;SDS011;15918;51.270;6.522;2023-02-15T09:28:40;32.53;;;21.75;;
28762;SDS011;15918;51.270;6.522;2023-02-15T09:31:10;33.92;;;22.83;;
28762;SDS011;15918;51.270;6.522;2023-02-15T09:33:37;32.60;;;22.33;;
28762;SDS011;15918;51.270;6.522;2023-02-15T09:36:04;35.00;;;23.85;;
28762;SDS011;15918;51.270;6.522;2023-02-15T09:38:31;32.35;;;22.15;;
28762;SDS011;15918;51.270;6.522;2023-02-15T09:41:10;35.95;;;22.33;;
28762;SDS011;15918;51.270;6.522;2023-02-15T09:44:20;31.98;;;22.73;;
28762;SDS011;15918;51.270;6.522;2023-02-15T09:47:20;32.83;;;22.27;;
28762;SDS011;15918;51.270;6.522;2023-02-15T09:50:20;34.58;;;22.90;;
28762;SDS011;15918;51.270;6.522;2023-02-15T10:09:50;31.50;;;21.58;;
28762;SDS011;15918;51.270;6.522;2023-02-15T10:12:40;37.47;;;22.10;;
28762;SDS011;15918;51.270;6.522;2023-02-15T10:17:56;33.75;;;23.00;;
28762;SDS011;15918;51.270;6.522;2023-02-15T10:21:02;32.70;;;22.73;;
28762;SDS011;15918;51.270;6.522;2023-02-15T10:26:18;33.13;;;22.05;;
28762;SDS011;15918;51.270;6.522;2023-02-15T10:28:50;31.15;;;21.85;;
28762;SDS011;15918;51.270;6.522;2023-02-15T10:31:23;33.53;;;23.20;;
28762;SDS011;15918;51.270;6.522;2023-02-15T10:39:22;34.47;;;23.30;;
28762;SDS011;15918;51.270;6.522;2023-02-15T10:42:30;33.88;;;22.52;;
28762;SDS011;15918;51.270;6.522;2023-02-15T10:45:12;33.42;;;23.20;;
28762;SDS011;15918;51.270;6.522;2023-02-15T10:50:35;33.13;;;22.52;;
28762;SDS011;15918;51.270;6.522;2023-02-15T10:53:23;31.98;;;21.40;;
28762;SDS011;15918;51.270;6.522;2023-02-15T10:59:11;32.85;;;23.05;;
28762;SDS011;15918;51.270;6.522;2023-02-15T11:04:48;34.38;;;23.08;;
28762;SDS011;15918;51.270;6.522;2023-02-15T11:07:36;32.88;;;21.80;;
28762;SDS011;15918;51.270;6.522;2023-02-15T11:13:09;35.10;;;23.02;;
28762;SDS011;15918;51.270;6.522;2023-02-15T11:15:40;36.60;;;23.60;;
28762;SDS011;15918;51.270;6.522;2023-02-15T11:18:15;30.55;;;22.23;;
28762;SDS011;15918;51.270;6.522;2023-02-15T11:23:35;34.97;;;21.58;;
28762;SDS011;15918;51.270;6.522;2023-02-15T11:26:08;33.65;;;22.90;;
28762;SDS011;15918;51.270;6.522;2023-02-15T11:28:46;34.25;;;23.75;;
28762;SDS011;15918;51.270;6.522;2023-02-15T11:31:25;33.15;;;22.67;;
28762;SDS011;15918;51.270;6.522;2023-02-15T11:33:57;32.03;;;22.85;;
28762;SDS011;15918;51.270;6.522;2023-02-15T11:36:32;33.88;;;22.80;;
28762;SDS011;15918;51.270;6.522;2023-02-15T11:39:03;37.67;;;23.43;;
28762;SDS011;15918;51.270;6.522;2023-02-15T11:41:35;31.92;;;22.25;;
28762;SDS011;15918;51.270;6.522;2023-02-15T11:46:33;34.03;;;22.45;;
28762;SDS011;15918;51.270;6.522;2023-02-15T11:48:59;31.50;;;21.58;;
28762;SDS011;15918;51.270;6.522;2023-02-15T11:51:25;33.88;;;24.10;;
28762;SDS011;15918;51.270;6.522;2023-02-15T11:53:53;35.35;;;23.35;;
28762;SDS011;15918;51.270;6.522;2023-02-15T11:56:22;32.05;;;22.15;;
28762;SDS011;15918;51.270;6.522;2023-02-15T11:58:59;36.17;;;21.83;;
28762;SDS011;15918;51.270;6.522;2023-02-15T12:01:33;33.00;;;21.67;;
28762;SDS011;15918;51.270;6.522;2023-02-15T12:06:51;34.38;;;22.80;;
28762;SDS011;15918;51.270;6.522;2023-02-15T12:12:21;32.80;;;22.38;;
28762;SDS011;15918;51.270;6.522;2023-02-15T12:14:58;30.27;;;22.48;;
28762;SDS011;15918;51.270;6.522;2023-02-15T12:17:39;31.90;;;22.52;;
28762;SDS011;15918;51.270;6.522;2023-02-15T12:22:38;32.05;;;21.13;;
28762;SDS011;15918;51.270;6.522;2023-02-15T12:25:21;30.45;;;21.25;;
28762;SDS011;15918;51.270;6.522;2023-02-15T12:27:50;32.38;;;21.30;;
28762;SDS011;15918;51.270;6.522;2023-02-15T12:32:54;30.20;;;21.33;;
28762;SDS011;15918;51.270;6.522;2023-02-15T12:35:29;27.70;;;20.13;;
28762;SDS011;15918;51.270;6.522;2023-02-15T12:38:04;29.90;;;20.08;;
28762;SDS011;15918;51.270;6.522;2023-02-15T12:40:56;28.23;;;20.38;;
28762;SDS011;15918;51.270;6.522;2023-02-15T12:49:07;31.05;;;20.45;;
28762;SDS011;15918;51.270;6.522;2023-02-15T12:51:43;30.08;;;20.40;;
28762;SDS011;15918;51.270;6.522;2023-02-15T12:56:57;31.42;;;20.40;;
28762;SDS011;15918;51.270;6.522;2023-02-15T12:59:23;32.10;;;20.85;;
28762;SDS011;15918;51.270;6.522;2023-02-15T13:01:50;31.98;;;22.13;;
28762;SDS011;15918;51.270;6.522;2023-02-15T13:04:22;36.10;;;20.83;;
28762;SDS011;15918;51.270;6.522;2023-02-15T13:06:57;31.67;;;21.75;;
28762;SDS011;15918;51.270;6.522;2023-02-15T13:11:56;28.17;;;20.10;;
28762;SDS011;15918;51.270;6.522;2023-02-15T13:14:29;30.30;;;21.55;;
28762;SDS011;15918;51.270;6.522;2023-02-15T13:16:58;29.63;;;20.00;;
28762;SDS011;15918;51.270;6.522;2023-02-15T13:19:35;30.70;;;20.75;;
28762;SDS011;15918;51.270;6.522;2023-02-15T13:22:06;30.90;;;19.48;;
28762;SDS011;15918;51.270;6.522;2023-02-15T13:24:46;27.83;;;20.40;;
28762;SDS011;15918;51.270;6.522;2023-02-15T13:27:18;30.30;;;21.00;;
28762;SDS011;15918;51.270;6.522;2023-02-15T13:29:50;31.65;;;19.77;;
28762;SDS011;15918;51.270;6.522;2023-02-15T13:32:31;27.92;;;20.20;;
28762;SDS011;15918;51.270;6.522;2023-02-15T13:35:01;28.38;;;20.42;;
28762;SDS011;15918;51.270;6.522;2023-02-15T13:37:45;31.05;;;20.35;;
28762;SDS011;15918;51.270;6.522;2023-02-15T13:41:05;30.98;;;20.83;;
28762;SDS011;15918;51.270;6.522;2023-02-15T13:43:42;29.83;;;20.27;;
28762;SDS011;15918;51.270;6.522;2023-02-15T13:46:23;32.15;;;19.83;;
28762;SDS011;15918;51.270;6.522;2023-02-15T13:51:37;29.70;;;21.10;;
28762;SDS011;15918;51.270;6.522;2023-02-15T13:54:33;30.80;;;20.50;;
28762;SDS011;15918;51.270;6.522;2023-02-15T14:10:57;28.10;;;18.85;;
28762;SDS011;15918;51.270;6.522;2023-02-15T14:14:18;27.58;;;19.30;;
28762;SDS011;15918;51.270;6.522;2023-02-15T14:16:55;27.25;;;18.83;;
28762;SDS011;15918;51.270;6.522;2023-02-15T14:24:39;29.75;;;19.90;;
28762;SDS011;15918;51.270;6.522;2023-02-15T14:27:16;30.98;;;20.58;;
28762;SDS011;15918;51.270;6.522;2023-02-15T14:30:52;26.27;;;19.45;;
28762;SDS011;15918;51.270;6.522;2023-02-15T14:32:53;28.33;;;19.45;;
28762;SDS011;15918;51.270;6.522;2023-02-15T14:35:22;26.20;;;18.10;;
28762;SDS011;15918;51.270;6.522;2023-02-15T14:49:06;29.73;;;19.23;;
28762;SDS011;15918;51.270;6.522;2023-02-15T14:54:09;29.25;;;20.38;;
28762;SDS011;15918;51.270;6.522;2023-02-15T14:56:35;30.70;;;20.08;;
28762;SDS011;15918;51.270;6.522;2023-02-15T14:59:17;34.53;;;20.48;;
28762;SDS011;15918;51.270;6.522;2023-02-15T15:01:57;27.65;;;18.67;;
28762;SDS011;15918;51.270;6.522;2023-02-15T15:04:32;26.20;;;19.60;;
28762;SDS011;15918;51.270;6.522;2023-02-15T15:07:14;32.22;;;19.50;;
28762;SDS011;15918;51.270;6.522;2023-02-15T15:10:00;28.00;;;19.70;;
28762;SDS011;15918;51.270;6.522;2023-02-15T15:12:40;28.48;;;20.55;;
28762;SDS011;15918;51.270;6.522;2023-02-15T15:18:09;33.13;;;20.85;;
28762;SDS011;15918;51.270;6.522;2023-02-15T15:20:54;29.17;;;19.88;;
28762;SDS011;15918;51.270;6.522;2023-02-15T15:23:33;26.33;;;19.48;;
28762;SDS011;15918;51.270;6.522;2023-02-15T15:26:21;31.33;;;19.67;;
28762;SDS011;15918;51.270;6.522;2023-02-15T15:36:31;26.25;;;18.20;;
28762;SDS011;15918;51.270;6.522;2023-02-15T15:39:15;26.25;;;18.67;;
28762;SDS011;15918;51.270;6.522;2023-02-15T15:42:13;27.13;;;18.38;;
28762;SDS011;15918;51.270;6.522;2023-02-15T15:48:30;30.73;;;19.15;;
28762;SDS011;15918;51.270;6.522;2023-02-15T15:51:00;28.35;;;18.45;;
28762;SDS011;15918;51.270;6.522;2023-02-15T15:53:32;26.17;;;19.08;;
28762;SDS011;15918;51.270;6.522;2023-02-15T15:56:05;24.35;;;18.08;;
28762;SDS011;15918;51.270;6.522;2023-02-15T15:58:35;29.40;;;18.70;;
28762;SDS011;15918;51.270;6.522;2023-02-15T16:01:06;26.13;;;18.63;;
28762;SDS011;15918;51.270;6.522;2023-02-15T16:03:34;29.55;;;20.27;;
28762;SDS011;15918;51.270;6.522;2023-02-15T16:06:00;27.88;;;19.83;;
28762;SDS011;15918;51.270;6.522;2023-02-15T16:08:26;35.92;;;22.52;;
28762;SDS011;15918;51.270;6.522;2023-02-15T16:10:58;29.80;;;21.25;;
28762;SDS011;15918;51.270;6.522;2023-02-15T16:13:27;30.38;;;21.73;;
28762;SDS011;15918;51.270;6.522;2023-02-15T16:15:53;31.88;;;21.50;;
28762;SDS011;15918;51.270;6.522;2023-02-15T16:18:24;30.23;;;21.35;;
28762;SDS011;15918;51.270;6.522;2023-02-15T16:20:55;28.90;;;21.83;;
28762;SDS011;15918;51.270;6.522;2023-02-15T16:26:12;31.50;;;20.75;;
28762;SDS011;15918;51.270;6.522;2023-02-15T16:28:48;34.33;;;21.20;;
28762;SDS011;15918;51.270;6.522;2023-02-15T16:31:18;27.17;;;19.48;;
28762;SDS011;15918;51.270;6.522;2023-02-15T16:33:44;27.70;;;19.92;;
28762;SDS011;15918;51.270;6.522;2023-02-15T16:36:11;24.38;;;17.83;;
28762;SDS011;15918;51.270;6.522;2023-02-15T16:41:13;27.15;;;19.65;;
28762;SDS011;15918;51.270;6.522;2023-02-15T16:43:47;32.35;;;21.83;;
28762;SDS011;15918;51.270;6.522;2023-02-15T16:46:36;25.58;;;18.80;;
28762;SDS011;15918;51.270;6.522;2023-02-15T16:49:04;26.80;;;19.83;;
28762;SDS011;15918;51.270;6.522;2023-02-15T16:51:40;30.73;;;20.55;;
28762;SDS011;15918;51.270;6.522;2023-02-15T16:54:13;30.30;;;20.30;;
28762;SDS011;15918;51.270;6.522;2023-02-15T16:56:43;26.67;;;19.33;;
28762;SDS011;15918;51.270;6.522;2023-02-15T16:59:16;31.55;;;19.63;;
28762;SDS011;15918;51.270;6.522;2023-02-15T17:01:52;28.05;;;21.05;;
28762;SDS011;15918;51.270;6.522;2023-02-15T17:09:30;25.00;;;18.77;;
28762;SDS011;15918;51.270;6.522;2023-02-15T17:11:56;24.83;;;18.10;;
28762;SDS011;15918;51.270;6.522;2023-02-15T17:14:31;27.30;;;19.75;;
28762;SDS011;15918;51.270;6.522;2023-02-15T17:17:11;26.65;;;18.52;;
28762;SDS011;15918;51.270;6.522;2023-02-15T17:19:52;25.00;;;18.15;;
28762;SDS011;15918;51.270;6.522;2023-02-15T17:22:21;23.80;;;18.13;;